sensor_id;sensor_type;location;lat;lon;timestamp;P1;durP1;ratioP1;P2;durP2;ratioP2
70320;SDS011;61127;55.826;37.046;2023-09-18T00:00:51;10.70;;;6.70;;
70320;SDS011;61127;55.826;37.046;2023-09-18T00:03:20;14.48;;;7.53;;
70320;SDS011;61127;55.826;37.046;2023-09-18T00:05:50;14.35;;;7.80;;
70320;SDS011;61127;55.826;37.046;2023-09-18T00:08:18;11.27;;;6.57;;
70320;SDS011;61127;55.826;37.046;2023-09-18T00:10:52;11.53;;;6.93;;
70320;SDS011;61127;55.826;37.046;2023-09-18T00:13:19;11.88;;;6.75;;
70320;SDS011;61127;55.826;37.046;2023-09-18T00:15:46;15.05;;;7.30;;
70320;SDS011;61127;55.826;37.046;2023-09-18T00:18:13;13.85;;;6.72;;
70320;SDS011;61127;55.826;37.046;2023-09-18T00:20:41;10.32;;;6.15;;
70320;SDS011;61127;55.826;37.046;2023-09-18T00:23:08;10.10;;;5.97;;
70320;SDS011;61127;55.826;37.046;2023-09-18T00:25:35;12.48;;;6.30;;
70320;SDS011;61127;55.826;37.046;2023-09-18T00:28:02;11.23;;;6.53;;
70320;SDS011;61127;55.826;37.046;2023-09-18T00:30:30;13.20;;;6.35;;
70320;SDS011;61127;55.826;37.046;2023-09-18T00:32:57;10.63;;;6.05;;
70320;SDS011;61127;55.826;37.046;2023-09-18T00:35:24;12.60;;;6.43;;
70320;SDS011;61127;55.826;37.046;2023-09-18T00:37:50;9.77;;;5.90;;
70320;SDS011;61127;55.826;37.046;2023-09-18T00:40:16;12.95;;;6.50;;
70320;SDS011;61127;55.826;37.046;2023-09-18T00:42:44;10.48;;;6.65;;
70320;SDS011;61127;55.826;37.046;2023-09-18T00:45:11;11.15;;;5.97;;
70320;SDS011;61127;55.826;37.046;2023-09-18T00:47:37;12.93;;;5.97;;
70320;SDS011;61127;55.826;37.046;2023-09-18T00:50:04;10.60;;;5.78;;
70320;SDS011;61127;55.826;37.046;2023-09-18T00:52:34;11.15;;;6.00;;
70320;SDS011;61127;55.826;37.046;2023-09-18T00:55:00;9.18;;;5.55;;
70320;SDS011;61127;55.826;37.046;2023-09-18T00:57:30;9.48;;;5.05;;
70320;SDS011;61127;55.826;37.046;2023-09-18T00:59:56;10.50;;;5.27;;
70320;SDS011;61127;55.826;37.046;2023-09-18T01:02:23;10.00;;;4.80;;
70320;SDS011;61127;55.826;37.046;2023-09-18T01:04:49;11.07;;;5.97;;
70320;SDS011;61127;55.826;37.046;2023-09-18T01:07:16;11.27;;;5.95;;
70320;SDS011;61127;55.826;37.046;2023-09-18T01:09:42;8.47;;;5.20;;
70320;SDS011;61127;55.826;37.046;2023-09-18T01:12:17;8.45;;;5.35;;
70320;SDS011;61127;55.826;37.046;2023-09-18T01:14:57;9.43;;;5.40;;
70320;SDS011;61127;55.826;37.046;2023-09-18T01:17:34;8.38;;;4.70;;
70320;SDS011;61127;55.826;37.046;2023-09-18T01:20:06;8.50;;;5.05;;
70320;SDS011;61127;55.826;37.046;2023-09-18T01:22:35;8.00;;;4.73;;
70320;SDS011;61127;55.826;37.046;2023-09-18T01:25:01;10.02;;;5.15;;
70320;SDS011;61127;55.826;37.046;2023-09-18T01:27:30;7.20;;;4.55;;
70320;SDS011;61127;55.826;37.046;2023-09-18T01:29:57;8.70;;;5.18;;
70320;SDS011;61127;55.826;37.046;2023-09-18T01:32:24;8.98;;;4.53;;
70320;SDS011;61127;55.826;37.046;2023-09-18T01:34:54;8.20;;;4.57;;
70320;SDS011;61127;55.826;37.046;2023-09-18T01:37:23;9.02;;;4.50;;
70320;SDS011;61127;55.826;37.046;2023-09-18T01:39:51;8.90;;;4.60;;
70320;SDS011;61127;55.826;37.046;2023-09-18T01:42:19;11.57;;;4.95;;
70320;SDS011;61127;55.826;37.046;2023-09-18T01:44:47;8.95;;;4.80;;
70320;SDS011;61127;55.826;37.046;2023-09-18T01:47:17;7.17;;;4.60;;
70320;SDS011;61127;55.826;37.046;2023-09-18T01:49:45;9.20;;;4.43;;
70320;SDS011;61127;55.826;37.046;2023-09-18T01:52:12;8.65;;;4.80;;
70320;SDS011;61127;55.826;37.046;2023-09-18T01:54:38;7.25;;;4.22;;
70320;SDS011;61127;55.826;37.046;2023-09-18T01:57:05;9.48;;;4.85;;
70320;SDS011;61127;55.826;37.046;2023-09-18T01:59:34;8.57;;;4.63;;
70320;SDS011;61127;55.826;37.046;2023-09-18T02:02:01;9.85;;;4.70;;
70320;SDS011;61127;55.826;37.046;2023-09-18T02:04:33;7.53;;;4.60;;
70320;SDS011;61127;55.826;37.046;2023-09-18T02:06:59;8.73;;;4.72;;
70320;SDS011;61127;55.826;37.046;2023-09-18T02:09:25;8.05;;;4.40;;
70320;SDS011;61127;55.826;37.046;2023-09-18T02:11:51;11.97;;;4.73;;
70320;SDS011;61127;55.826;37.046;2023-09-18T02:14:19;7.63;;;4.20;;
70320;SDS011;61127;55.826;37.046;2023-09-18T02:16:45;13.60;;;4.70;;
70320;SDS011;61127;55.826;37.046;2023-09-18T02:19:13;7.05;;;4.47;;
70320;SDS011;61127;55.826;37.046;2023-09-18T02:21:40;9.25;;;5.10;;
70320;SDS011;61127;55.826;37.046;2023-09-18T02:24:07;10.07;;;4.60;;
70320;SDS011;61127;55.826;37.046;2023-09-18T02:26:34;7.30;;;4.32;;
70320;SDS011;61127;55.826;37.046;2023-09-18T02:29:00;8.43;;;4.70;;
70320;SDS011;61127;55.826;37.046;2023-09-18T02:31:30;7.13;;;4.22;;
70320;SDS011;61127;55.826;37.046;2023-09-18T02:33:56;10.32;;;4.60;;
70320;SDS011;61127;55.826;37.046;2023-09-18T02:36:22;6.97;;;4.00;;
70320;SDS011;61127;55.826;37.046;2023-09-18T02:38:49;9.52;;;4.68;;
70320;SDS011;61127;55.826;37.046;2023-09-18T02:41:15;8.35;;;4.55;;
70320;SDS011;61127;55.826;37.046;2023-09-18T02:43:41;7.25;;;4.20;;
70320;SDS011;61127;55.826;37.046;2023-09-18T02:46:07;11.75;;;4.82;;
70320;SDS011;61127;55.826;37.046;2023-09-18T02:48:34;7.33;;;4.43;;
70320;SDS011;61127;55.826;37.046;2023-09-18T02:51:01;8.23;;;4.25;;
70320;SDS011;61127;55.826;37.046;2023-09-18T02:53:28;7.70;;;4.65;;
70320;SDS011;61127;55.826;37.046;2023-09-18T02:55:57;7.25;;;4.80;;
70320;SDS011;61127;55.826;37.046;2023-09-18T02:58:24;7.70;;;4.40;;
70320;SDS011;61127;55.826;37.046;2023-09-18T03:00:52;7.50;;;4.77;;
70320;SDS011;61127;55.826;37.046;2023-09-18T03:03:26;7.40;;;4.60;;
70320;SDS011;61127;55.826;37.046;2023-09-18T03:05:52;10.13;;;4.80;;
70320;SDS011;61127;55.826;37.046;2023-09-18T03:08:18;8.87;;;4.40;;
70320;SDS011;61127;55.826;37.046;2023-09-18T03:10:45;9.48;;;4.93;;
70320;SDS011;61127;55.826;37.046;2023-09-18T03:13:13;8.00;;;4.30;;
70320;SDS011;61127;55.826;37.046;2023-09-18T03:15:43;8.18;;;4.32;;
70320;SDS011;61127;55.826;37.046;2023-09-18T03:18:10;10.40;;;4.80;;
70320;SDS011;61127;55.826;37.046;2023-09-18T03:20:37;8.93;;;4.00;;
70320;SDS011;61127;55.826;37.046;2023-09-18T03:23:04;7.75;;;4.30;;
70320;SDS011;61127;55.826;37.046;2023-09-18T03:25:30;7.60;;;4.50;;
70320;SDS011;61127;55.826;37.046;2023-09-18T03:27:57;8.00;;;4.38;;
70320;SDS011;61127;55.826;37.046;2023-09-18T03:30:28;8.35;;;4.47;;
70320;SDS011;61127;55.826;37.046;2023-09-18T03:32:54;7.17;;;4.40;;
70320;SDS011;61127;55.826;37.046;2023-09-18T03:35:22;7.60;;;5.07;;
70320;SDS011;61127;55.826;37.046;2023-09-18T03:37:49;10.35;;;4.90;;
70320;SDS011;61127;55.826;37.046;2023-09-18T03:40:20;7.20;;;4.32;;
70320;SDS011;61127;55.826;37.046;2023-09-18T03:42:47;8.55;;;4.38;;
70320;SDS011;61127;55.826;37.046;2023-09-18T03:45:15;9.00;;;4.03;;
70320;SDS011;61127;55.826;37.046;2023-09-18T03:47:43;7.43;;;4.30;;
70320;SDS011;61127;55.826;37.046;2023-09-18T03:50:10;6.32;;;4.18;;
70320;SDS011;61127;55.826;37.046;2023-09-18T03:52:37;9.43;;;4.40;;
70320;SDS011;61127;55.826;37.046;2023-09-18T03:55:04;11.93;;;5.13;;
70320;SDS011;61127;55.826;37.046;2023-09-18T03:57:31;8.40;;;4.27;;
70320;SDS011;61127;55.826;37.046;2023-09-18T03:59:58;7.60;;;4.35;;
70320;SDS011;61127;55.826;37.046;2023-09-18T04:02:24;8.80;;;4.53;;
70320;SDS011;61127;55.826;37.046;2023-09-18T04:04:55;7.10;;;4.30;;
70320;SDS011;61127;55.826;37.046;2023-09-18T04:07:21;8.48;;;4.30;;
70320;SDS011;61127;55.826;37.046;2023-09-18T04:09:48;9.53;;;4.33;;
70320;SDS011;61127;55.826;37.046;2023-09-18T04:12:14;8.82;;;4.50;;
70320;SDS011;61127;55.826;37.046;2023-09-18T04:14:41;8.73;;;4.28;;
70320;SDS011;61127;55.826;37.046;2023-09-18T04:17:07;10.35;;;4.32;;
70320;SDS011;61127;55.826;37.046;2023-09-18T04:19:34;7.10;;;3.95;;
70320;SDS011;61127;55.826;37.046;2023-09-18T04:22:00;7.37;;;4.10;;
70320;SDS011;61127;55.826;37.046;2023-09-18T04:24:26;7.88;;;3.95;;
70320;SDS011;61127;55.826;37.046;2023-09-18T04:26:52;7.10;;;4.40;;
70320;SDS011;61127;55.826;37.046;2023-09-18T04:29:19;7.38;;;4.55;;
70320;SDS011;61127;55.826;37.046;2023-09-18T04:31:47;7.63;;;4.23;;
70320;SDS011;61127;55.826;37.046;2023-09-18T04:34:14;8.52;;;4.18;;
70320;SDS011;61127;55.826;37.046;2023-09-18T04:36:40;7.35;;;4.10;;
70320;SDS011;61127;55.826;37.046;2023-09-18T04:39:07;7.55;;;4.22;;
70320;SDS011;61127;55.826;37.046;2023-09-18T04:41:35;8.98;;;4.20;;
70320;SDS011;61127;55.826;37.046;2023-09-18T04:44:04;7.83;;;4.03;;
70320;SDS011;61127;55.826;37.046;2023-09-18T04:46:32;8.20;;;4.15;;
70320;SDS011;61127;55.826;37.046;2023-09-18T04:49:01;10.57;;;5.13;;
70320;SDS011;61127;55.826;37.046;2023-09-18T04:51:31;8.13;;;4.03;;
70320;SDS011;61127;55.826;37.046;2023-09-18T04:53:58;6.78;;;4.20;;
70320;SDS011;61127;55.826;37.046;2023-09-18T04:56:25;7.27;;;4.10;;
70320;SDS011;61127;55.826;37.046;2023-09-18T04:58:52;7.70;;;3.85;;
70320;SDS011;61127;55.826;37.046;2023-09-18T05:01:19;6.70;;;3.80;;
70320;SDS011;61127;55.826;37.046;2023-09-18T05:03:46;6.68;;;3.90;;
70320;SDS011;61127;55.826;37.046;2023-09-18T05:06:14;9.68;;;4.15;;
70320;SDS011;61127;55.826;37.046;2023-09-18T05:08:41;6.27;;;3.90;;
70320;SDS011;61127;55.826;37.046;2023-09-18T05:11:07;9.18;;;4.00;;
70320;SDS011;61127;55.826;37.046;2023-09-18T05:13:32;7.78;;;3.90;;
70320;SDS011;61127;55.826;37.046;2023-09-18T05:15:58;6.85;;;3.50;;
70320;SDS011;61127;55.826;37.046;2023-09-18T05:18:26;7.47;;;4.10;;
70320;SDS011;61127;55.826;37.046;2023-09-18T05:20:52;6.45;;;3.60;;
70320;SDS011;61127;55.826;37.046;2023-09-18T05:23:18;5.55;;;3.50;;
70320;SDS011;61127;55.826;37.046;2023-09-18T05:25:44;5.50;;;3.90;;
70320;SDS011;61127;55.826;37.046;2023-09-18T05:28:10;6.53;;;4.07;;
70320;SDS011;61127;55.826;37.046;2023-09-18T05:30:36;7.43;;;3.88;;
70320;SDS011;61127;55.826;37.046;2023-09-18T05:33:06;7.60;;;3.90;;
70320;SDS011;61127;55.826;37.046;2023-09-18T05:35:34;6.20;;;3.65;;
70320;SDS011;61127;55.826;37.046;2023-09-18T05:38:06;6.78;;;3.50;;
70320;SDS011;61127;55.826;37.046;2023-09-18T05:40:32;6.60;;;3.90;;
70320;SDS011;61127;55.826;37.046;2023-09-18T05:42:59;6.05;;;3.33;;
70320;SDS011;61127;55.826;37.046;2023-09-18T05:45:25;6.30;;;3.92;;
70320;SDS011;61127;55.826;37.046;2023-09-18T05:47:53;7.03;;;3.60;;
70320;SDS011;61127;55.826;37.046;2023-09-18T05:50:27;8.55;;;3.78;;
70320;SDS011;61127;55.826;37.046;2023-09-18T05:52:55;8.47;;;3.73;;
70320;SDS011;61127;55.826;37.046;2023-09-18T05:55:26;8.23;;;3.72;;
70320;SDS011;61127;55.826;37.046;2023-09-18T05:57:53;7.25;;;3.90;;
70320;SDS011;61127;55.826;37.046;2023-09-18T06:00:20;8.38;;;4.00;;
70320;SDS011;61127;55.826;37.046;2023-09-18T06:02:47;6.97;;;3.90;;
70320;SDS011;61127;55.826;37.046;2023-09-18T06:05:13;9.10;;;3.80;;
70320;SDS011;61127;55.826;37.046;2023-09-18T06:07:41;5.35;;;3.75;;
70320;SDS011;61127;55.826;37.046;2023-09-18T06:10:08;7.97;;;3.83;;
70320;SDS011;61127;55.826;37.046;2023-09-18T06:12:34;6.88;;;4.22;;
70320;SDS011;61127;55.826;37.046;2023-09-18T06:15:03;7.65;;;4.00;;
70320;SDS011;61127;55.826;37.046;2023-09-18T06:17:30;8.30;;;4.27;;
70320;SDS011;61127;55.826;37.046;2023-09-18T06:19:56;8.55;;;4.22;;
70320;SDS011;61127;55.826;37.046;2023-09-18T06:22:23;6.53;;;3.92;;
70320;SDS011;61127;55.826;37.046;2023-09-18T06:24:48;6.68;;;4.05;;
70320;SDS011;61127;55.826;37.046;2023-09-18T06:27:14;5.63;;;4.07;;
70320;SDS011;61127;55.826;37.046;2023-09-18T06:29:40;9.40;;;4.70;;
70320;SDS011;61127;55.826;37.046;2023-09-18T06:32:08;7.10;;;4.30;;
70320;SDS011;61127;55.826;37.046;2023-09-18T06:34:34;7.93;;;3.95;;
70320;SDS011;61127;55.826;37.046;2023-09-18T06:37:00;8.87;;;4.30;;
70320;SDS011;61127;55.826;37.046;2023-09-18T06:39:26;5.90;;;3.83;;
70320;SDS011;61127;55.826;37.046;2023-09-18T06:41:52;9.15;;;4.22;;
70320;SDS011;61127;55.826;37.046;2023-09-18T06:44:18;10.10;;;4.22;;
70320;SDS011;61127;55.826;37.046;2023-09-18T06:46:44;9.07;;;4.20;;
70320;SDS011;61127;55.826;37.046;2023-09-18T06:49:10;7.25;;;4.22;;
70320;SDS011;61127;55.826;37.046;2023-09-18T06:51:37;7.93;;;4.10;;
70320;SDS011;61127;55.826;37.046;2023-09-18T06:54:03;6.15;;;3.83;;
70320;SDS011;61127;55.826;37.046;2023-09-18T06:56:29;10.05;;;3.92;;
70320;SDS011;61127;55.826;37.046;2023-09-18T06:58:55;6.30;;;3.70;;
70320;SDS011;61127;55.826;37.046;2023-09-18T07:01:21;7.38;;;3.83;;
70320;SDS011;61127;55.826;37.046;2023-09-18T07:03:50;7.18;;;3.58;;
70320;SDS011;61127;55.826;37.046;2023-09-18T07:06:16;6.03;;;3.65;;
70320;SDS011;61127;55.826;37.046;2023-09-18T07:08:46;6.97;;;3.72;;
70320;SDS011;61127;55.826;37.046;2023-09-18T07:11:15;9.70;;;4.37;;
70320;SDS011;61127;55.826;37.046;2023-09-18T07:13:42;6.10;;;3.92;;
70320;SDS011;61127;55.826;37.046;2023-09-18T07:16:09;8.40;;;3.65;;
70320;SDS011;61127;55.826;37.046;2023-09-18T07:18:35;5.85;;;3.58;;
70320;SDS011;61127;55.826;37.046;2023-09-18T07:21:01;6.80;;;4.30;;
70320;SDS011;61127;55.826;37.046;2023-09-18T07:23:27;8.63;;;4.67;;
70320;SDS011;61127;55.826;37.046;2023-09-18T07:25:53;7.18;;;4.13;;
70320;SDS011;61127;55.826;37.046;2023-09-18T07:28:19;8.07;;;3.92;;
70320;SDS011;61127;55.826;37.046;2023-09-18T07:30:46;10.50;;;4.05;;
70320;SDS011;61127;55.826;37.046;2023-09-18T07:33:13;6.20;;;3.90;;
70320;SDS011;61127;55.826;37.046;2023-09-18T07:35:49;6.22;;;4.07;;
70320;SDS011;61127;55.826;37.046;2023-09-18T07:38:17;7.15;;;3.70;;
70320;SDS011;61127;55.826;37.046;2023-09-18T07:40:45;7.97;;;4.57;;
70320;SDS011;61127;55.826;37.046;2023-09-18T07:43:13;9.98;;;4.55;;
70320;SDS011;61127;55.826;37.046;2023-09-18T07:45:39;6.33;;;4.20;;
70320;SDS011;61127;55.826;37.046;2023-09-18T07:48:06;9.88;;;4.53;;
70320;SDS011;61127;55.826;37.046;2023-09-18T07:50:33;9.90;;;4.80;;
70320;SDS011;61127;55.826;37.046;2023-09-18T07:53:02;7.65;;;3.85;;
70320;SDS011;61127;55.826;37.046;2023-09-18T07:55:28;8.77;;;4.20;;
70320;SDS011;61127;55.826;37.046;2023-09-18T07:57:56;8.00;;;4.90;;
70320;SDS011;61127;55.826;37.046;2023-09-18T08:00:22;8.38;;;4.60;;
70320;SDS011;61127;55.826;37.046;2023-09-18T08:02:49;8.73;;;3.88;;
70320;SDS011;61127;55.826;37.046;2023-09-18T08:05:17;8.68;;;4.60;;
70320;SDS011;61127;55.826;37.046;2023-09-18T08:07:43;8.48;;;4.47;;
70320;SDS011;61127;55.826;37.046;2023-09-18T08:10:11;8.37;;;4.50;;
70320;SDS011;61127;55.826;37.046;2023-09-18T08:12:38;7.47;;;5.05;;
70320;SDS011;61127;55.826;37.046;2023-09-18T08:15:04;7.70;;;4.38;;
70320;SDS011;61127;55.826;37.046;2023-09-18T08:17:32;8.50;;;4.40;;
70320;SDS011;61127;55.826;37.046;2023-09-18T08:19:58;8.05;;;4.70;;
70320;SDS011;61127;55.826;37.046;2023-09-18T08:22:24;9.33;;;4.87;;
70320;SDS011;61127;55.826;37.046;2023-09-18T08:24:50;11.55;;;5.18;;
70320;SDS011;61127;55.826;37.046;2023-09-18T08:27:18;9.93;;;4.82;;
70320;SDS011;61127;55.826;37.046;2023-09-18T08:29:45;7.88;;;4.53;;
70320;SDS011;61127;55.826;37.046;2023-09-18T08:32:11;10.35;;;4.78;;
70320;SDS011;61127;55.826;37.046;2023-09-18T08:34:37;11.40;;;5.13;;
70320;SDS011;61127;55.826;37.046;2023-09-18T08:37:03;7.97;;;4.80;;
70320;SDS011;61127;55.826;37.046;2023-09-18T08:39:30;9.18;;;4.65;;
70320;SDS011;61127;55.826;37.046;2023-09-18T08:41:59;9.38;;;4.97;;
70320;SDS011;61127;55.826;37.046;2023-09-18T08:44:29;8.45;;;4.85;;
70320;SDS011;61127;55.826;37.046;2023-09-18T08:46:56;10.40;;;5.70;;
70320;SDS011;61127;55.826;37.046;2023-09-18T08:49:25;9.85;;;5.40;;
70320;SDS011;61127;55.826;37.046;2023-09-18T08:51:53;10.13;;;5.60;;
70320;SDS011;61127;55.826;37.046;2023-09-18T08:54:21;10.07;;;5.55;;
70320;SDS011;61127;55.826;37.046;2023-09-18T08:56:51;11.65;;;5.45;;
70320;SDS011;61127;55.826;37.046;2023-09-18T08:59:19;9.90;;;5.17;;
70320;SDS011;61127;55.826;37.046;2023-09-18T09:01:48;12.88;;;5.43;;
70320;SDS011;61127;55.826;37.046;2023-09-18T09:04:14;12.52;;;6.10;;
70320;SDS011;61127;55.826;37.046;2023-09-18T09:06:40;11.38;;;5.55;;
70320;SDS011;61127;55.826;37.046;2023-09-18T09:09:07;10.43;;;5.55;;
70320;SDS011;61127;55.826;37.046;2023-09-18T09:11:34;8.77;;;5.60;;
70320;SDS011;61127;55.826;37.046;2023-09-18T09:14:10;10.80;;;5.60;;
70320;SDS011;61127;55.826;37.046;2023-09-18T09:16:46;12.93;;;5.60;;
70320;SDS011;61127;55.826;37.046;2023-09-18T09:19:15;10.90;;;5.82;;
70320;SDS011;61127;55.826;37.046;2023-09-18T09:21:42;7.88;;;5.40;;
70320;SDS011;61127;55.826;37.046;2023-09-18T09:24:13;9.17;;;5.60;;
70320;SDS011;61127;55.826;37.046;2023-09-18T09:26:41;10.57;;;5.72;;
70320;SDS011;61127;55.826;37.046;2023-09-18T09:29:15;8.95;;;5.22;;
70320;SDS011;61127;55.826;37.046;2023-09-18T09:31:46;11.50;;;5.65;;
70320;SDS011;61127;55.826;37.046;2023-09-18T09:34:23;8.82;;;5.22;;
70320;SDS011;61127;55.826;37.046;2023-09-18T09:36:55;7.17;;;4.70;;
70320;SDS011;61127;55.826;37.046;2023-09-18T09:39:22;7.22;;;4.40;;
70320;SDS011;61127;55.826;37.046;2023-09-18T09:41:53;8.95;;;4.72;;
70320;SDS011;61127;55.826;37.046;2023-09-18T09:44:20;8.15;;;5.07;;
70320;SDS011;61127;55.826;37.046;2023-09-18T09:46:49;9.10;;;4.80;;
70320;SDS011;61127;55.826;37.046;2023-09-18T09:49:17;9.63;;;4.90;;
70320;SDS011;61127;55.826;37.046;2023-09-18T09:51:45;8.80;;;4.78;;
70320;SDS011;61127;55.826;37.046;2023-09-18T09:54:11;8.25;;;5.10;;
70320;SDS011;61127;55.826;37.046;2023-09-18T09:56:43;9.13;;;4.45;;
70320;SDS011;61127;55.826;37.046;2023-09-18T09:59:16;8.15;;;5.20;;
70320;SDS011;61127;55.826;37.046;2023-09-18T10:01:47;6.50;;;4.60;;
70320;SDS011;61127;55.826;37.046;2023-09-18T10:04:18;8.27;;;4.22;;
70320;SDS011;61127;55.826;37.046;2023-09-18T10:06:52;7.05;;;4.53;;
70320;SDS011;61127;55.826;37.046;2023-09-18T10:09:22;6.72;;;4.25;;
70320;SDS011;61127;55.826;37.046;2023-09-18T10:11:52;7.22;;;3.80;;
70320;SDS011;61127;55.826;37.046;2023-09-18T10:14:25;5.77;;;3.23;;
70320;SDS011;61127;55.826;37.046;2023-09-18T10:17:23;4.10;;;3.13;;
70320;SDS011;61127;55.826;37.046;2023-09-18T10:20:01;5.07;;;3.13;;
70320;SDS011;61127;55.826;37.046;2023-09-18T10:22:42;4.50;;;3.20;;
70320;SDS011;61127;55.826;37.046;2023-09-18T10:25:23;4.00;;;2.90;;
70320;SDS011;61127;55.826;37.046;2023-09-18T10:27:51;4.20;;;2.80;;
70320;SDS011;61127;55.826;37.046;2023-09-18T10:30:27;3.50;;;2.50;;
70320;SDS011;61127;55.826;37.046;2023-09-18T10:32:55;3.90;;;2.90;;
70320;SDS011;61127;55.826;37.046;2023-09-18T10:35:23;4.72;;;2.92;;
70320;SDS011;61127;55.826;37.046;2023-09-18T10:37:49;4.17;;;3.00;;
70320;SDS011;61127;55.826;37.046;2023-09-18T10:40:19;4.53;;;2.90;;
70320;SDS011;61127;55.826;37.046;2023-09-18T10:42:46;7.85;;;2.90;;
70320;SDS011;61127;55.826;37.046;2023-09-18T10:45:15;3.88;;;2.72;;
70320;SDS011;61127;55.826;37.046;2023-09-18T10:47:42;4.65;;;2.78;;
70320;SDS011;61127;55.826;37.046;2023-09-18T10:50:22;7.30;;;2.92;;
70320;SDS011;61127;55.826;37.046;2023-09-18T10:52:52;3.40;;;2.60;;
70320;SDS011;61127;55.826;37.046;2023-09-18T10:55:18;5.30;;;2.75;;
70320;SDS011;61127;55.826;37.046;2023-09-18T10:57:50;4.05;;;2.53;;
70320;SDS011;61127;55.826;37.046;2023-09-18T11:00:30;3.53;;;2.53;;
70320;SDS011;61127;55.826;37.046;2023-09-18T11:03:12;4.88;;;2.45;;
70320;SDS011;61127;55.826;37.046;2023-09-18T11:05:45;3.67;;;2.53;;
70320;SDS011;61127;55.826;37.046;2023-09-18T11:11:07;3.95;;;2.30;;
70320;SDS011;61127;55.826;37.046;2023-09-18T11:13:39;3.88;;;2.30;;
70320;SDS011;61127;55.826;37.046;2023-09-18T11:16:16;4.15;;;2.70;;
70320;SDS011;61127;55.826;37.046;2023-09-18T11:18:50;3.43;;;2.50;;
70320;SDS011;61127;55.826;37.046;2023-09-18T11:21:27;2.90;;;2.28;;
70320;SDS011;61127;55.826;37.046;2023-09-18T11:24:36;4.25;;;2.45;;
70320;SDS011;61127;55.826;37.046;2023-09-18T11:26:46;3.22;;;2.30;;
70320;SDS011;61127;55.826;37.046;2023-09-18T11:29:17;3.80;;;2.15;;
70320;SDS011;61127;55.826;37.046;2023-09-18T11:31:51;3.53;;;2.30;;
70320;SDS011;61127;55.826;37.046;2023-09-18T11:34:22;3.10;;;2.03;;
70320;SDS011;61127;55.826;37.046;2023-09-18T11:36:52;3.92;;;2.60;;
70320;SDS011;61127;55.826;37.046;2023-09-18T11:42:07;5.40;;;2.70;;
70320;SDS011;61127;55.826;37.046;2023-09-18T11:44:38;4.53;;;2.50;;
70320;SDS011;61127;55.826;37.046;2023-09-18T11:47:18;4.47;;;2.28;;
70320;SDS011;61127;55.826;37.046;2023-09-18T11:52:22;4.40;;;2.30;;
70320;SDS011;61127;55.826;37.046;2023-09-18T11:54:48;4.35;;;2.08;;
70320;SDS011;61127;55.826;37.046;2023-09-18T11:57:15;3.87;;;2.60;;
70320;SDS011;61127;55.826;37.046;2023-09-18T11:59:42;3.75;;;2.80;;
70320;SDS011;61127;55.826;37.046;2023-09-18T12:02:09;3.63;;;2.42;;
70320;SDS011;61127;55.826;37.046;2023-09-18T12:04:36;7.45;;;2.60;;
70320;SDS011;61127;55.826;37.046;2023-09-18T12:07:04;2.85;;;2.17;;
70320;SDS011;61127;55.826;37.046;2023-09-18T12:09:32;3.40;;;2.30;;
70320;SDS011;61127;55.826;37.046;2023-09-18T12:12:04;3.33;;;2.50;;
70320;SDS011;61127;55.826;37.046;2023-09-18T12:14:32;3.60;;;2.38;;
70320;SDS011;61127;55.826;37.046;2023-09-18T12:17:02;3.30;;;2.53;;
70320;SDS011;61127;55.826;37.046;2023-09-18T12:19:29;5.57;;;3.03;;
70320;SDS011;61127;55.826;37.046;2023-09-18T12:21:56;4.47;;;2.63;;
70320;SDS011;61127;55.826;37.046;2023-09-18T12:24:23;4.60;;;2.60;;
70320;SDS011;61127;55.826;37.046;2023-09-18T12:26:50;4.00;;;2.78;;
70320;SDS011;61127;55.826;37.046;2023-09-18T12:29:17;5.35;;;2.63;;
70320;SDS011;61127;55.826;37.046;2023-09-18T12:31:47;4.65;;;2.65;;
70320;SDS011;61127;55.826;37.046;2023-09-18T12:34:19;8.20;;;3.00;;
70320;SDS011;61127;55.826;37.046;2023-09-18T12:36:50;5.95;;;2.72;;
70320;SDS011;61127;55.826;37.046;2023-09-18T12:39:17;4.03;;;2.47;;
70320;SDS011;61127;55.826;37.046;2023-09-18T12:41:46;4.25;;;2.47;;
70320;SDS011;61127;55.826;37.046;2023-09-18T12:44:13;3.40;;;2.53;;
70320;SDS011;61127;55.826;37.046;2023-09-18T12:46:42;4.23;;;3.00;;
70320;SDS011;61127;55.826;37.046;2023-09-18T12:49:18;6.70;;;2.72;;
70320;SDS011;61127;55.826;37.046;2023-09-18T12:51:59;5.70;;;2.97;;
70320;SDS011;61127;55.826;37.046;2023-09-18T12:54:44;5.03;;;3.05;;
70320;SDS011;61127;55.826;37.046;2023-09-18T12:57:14;8.05;;;3.08;;
70320;SDS011;61127;55.826;37.046;2023-09-18T12:59:41;4.87;;;3.00;;
70320;SDS011;61127;55.826;37.046;2023-09-18T13:02:07;5.57;;;3.10;;
70320;SDS011;61127;55.826;37.046;2023-09-18T13:04:34;6.40;;;3.10;;
70320;SDS011;61127;55.826;37.046;2023-09-18T13:07:09;6.20;;;3.40;;
70320;SDS011;61127;55.826;37.046;2023-09-18T13:09:38;4.70;;;2.90;;
70320;SDS011;61127;55.826;37.046;2023-09-18T13:12:04;6.10;;;3.27;;
70320;SDS011;61127;55.826;37.046;2023-09-18T13:17:24;6.82;;;3.25;;
70320;SDS011;61127;55.826;37.046;2023-09-18T13:19:51;9.13;;;6.20;;
70320;SDS011;61127;55.826;37.046;2023-09-18T13:22:26;7.80;;;4.95;;
70320;SDS011;61127;55.826;37.046;2023-09-18T13:24:55;7.60;;;4.47;;
70320;SDS011;61127;55.826;37.046;2023-09-18T13:27:22;6.13;;;3.67;;
70320;SDS011;61127;55.826;37.046;2023-09-18T13:29:48;5.55;;;4.00;;
70320;SDS011;61127;55.826;37.046;2023-09-18T13:32:15;7.68;;;3.88;;
70320;SDS011;61127;55.826;37.046;2023-09-18T13:34:40;6.63;;;3.97;;
70320;SDS011;61127;55.826;37.046;2023-09-18T13:37:06;6.37;;;4.10;;
70320;SDS011;61127;55.826;37.046;2023-09-18T13:39:32;5.68;;;3.75;;
70320;SDS011;61127;55.826;37.046;2023-09-18T13:41:58;5.70;;;3.83;;
70320;SDS011;61127;55.826;37.046;2023-09-18T13:44:24;5.70;;;3.60;;
70320;SDS011;61127;55.826;37.046;2023-09-18T13:46:50;6.60;;;4.10;;
70320;SDS011;61127;55.826;37.046;2023-09-18T13:49:16;6.65;;;3.75;;
70320;SDS011;61127;55.826;37.046;2023-09-18T13:51:42;5.20;;;3.30;;
70320;SDS011;61127;55.826;37.046;2023-09-18T13:54:08;6.05;;;3.30;;
70320;SDS011;61127;55.826;37.046;2023-09-18T13:56:34;6.22;;;3.78;;
70320;SDS011;61127;55.826;37.046;2023-09-18T13:59:00;6.15;;;3.67;;
70320;SDS011;61127;55.826;37.046;2023-09-18T14:01:26;4.97;;;3.60;;
70320;SDS011;61127;55.826;37.046;2023-09-18T14:03:53;5.55;;;3.88;;
70320;SDS011;61127;55.826;37.046;2023-09-18T14:06:20;5.63;;;3.60;;
70320;SDS011;61127;55.826;37.046;2023-09-18T14:08:46;5.88;;;4.03;;
70320;SDS011;61127;55.826;37.046;2023-09-18T14:11:12;5.53;;;3.60;;
70320;SDS011;61127;55.826;37.046;2023-09-18T14:13:38;5.07;;;3.28;;
70320;SDS011;61127;55.826;37.046;2023-09-18T14:16:04;5.57;;;3.28;;
70320;SDS011;61127;55.826;37.046;2023-09-18T14:18:31;6.10;;;3.10;;
70320;SDS011;61127;55.826;37.046;2023-09-18T14:20:57;4.55;;;3.17;;
70320;SDS011;61127;55.826;37.046;2023-09-18T14:23:23;4.27;;;3.17;;
70320;SDS011;61127;55.826;37.046;2023-09-18T14:25:49;8.40;;;5.30;;
70320;SDS011;61127;55.826;37.046;2023-09-18T14:28:15;10.68;;;7.55;;
70320;SDS011;61127;55.826;37.046;2023-09-18T14:30:41;16.00;;;12.02;;
70320;SDS011;61127;55.826;37.046;2023-09-18T14:33:07;16.27;;;11.40;;
70320;SDS011;61127;55.826;37.046;2023-09-18T14:35:34;15.73;;;11.73;;
70320;SDS011;61127;55.826;37.046;2023-09-18T14:38:02;11.65;;;9.20;;
70320;SDS011;61127;55.826;37.046;2023-09-18T14:40:29;13.10;;;9.63;;
70320;SDS011;61127;55.826;37.046;2023-09-18T14:42:55;13.77;;;8.23;;
70320;SDS011;61127;55.826;37.046;2023-09-18T14:45:22;29.35;;;13.73;;
70320;SDS011;61127;55.826;37.046;2023-09-18T14:47:48;18.25;;;10.38;;